Chrisanthi — SX7108 — position and weather

sailwx.info

Track history (hours):
 
Tides and Currents Weather Stations Pressure Air Temp Water Temp Dewpoint Dewpoint Depression Visibility Wind Speed Wind Dir Waves Ship Positions

Chrisanthi

Last reported at 2016-Jun-27 14:34 UTC. Time now 2016-Jun-27 16:55 UTC.
Position N 37°04' E 025°06'.

Length 56 m; draft 3.9 m.

Type: Ship (hazmat cat A). MMSI: 237009100.

Date/timePositionNaut miles runAvg speedWind from/ knotsBaromVisibWave heightAir tempDewpointWater temp
2016-Jun-27 14:34N 37°04' E 025°06'1 0.1
2016-Jun-27 07:23N 37°05' E 025°07'12 0.8
2016-Jun-26 17:33N 37°02' E 025°21'5 5.0
2016-Jun-26 16:34N 37°06' E 025°22'1 0.6
2016-Jun-26 15:33N 37°06' E 025°22'0 0.2
2016-Jun-26 14:33N 37°06' E 025°22'1 0.7
2016-Jun-26 13:33N 37°06' E 025°22'1 0.5
2016-Jun-26 12:33N 37°06' E 025°22'0 0.1
2016-Jun-26 11:33N 37°06' E 025°22'4 3.7
2016-Jun-26 10:33N 37°09' E 025°20'10 9.6
2016-Jun-26 09:33N 37°19' E 025°18'9 9.0
2016-Jun-26 08:33N 37°28' E 025°19'0 0.0
2016-Jun-26 07:33N 37°28' E 025°19'0 0.4
2016-Jun-26 06:33N 37°27' E 025°19'0 0.3
2016-Jun-26 05:33N 37°27' E 025°19'5 5.0
2016-Jun-26 04:33N 37°28' E 025°13'2110.1
2016-Jun-26 02:30N 37°33' E 024°48'2010.1
2016-Jun-26 00:31N 37°41' E 024°24'33 0.7
2016-Jun-24 02:16N 37°24' E 023°49'7 9.9
2016-Jun-24 01:33N 37°28' E 023°42'1010.0
2016-Jun-24 00:33N 37°35' E 023°33'10 9.7
2016-Jun-23 23:33N 37°39' E 023°22'10 9.5
2016-Jun-23 22:33N 37°46' E 023°14'1010.1
2016-Jun-23 21:33N 37°54' E 023°06'1 0.1
2016-Jun-23 16:16N 37°55' E 023°05'0 0.0
2016-Jun-23 11:32N 37°55' E 023°05'0 0.0
2016-Jun-23 10:32N 37°55' E 023°05'0 0.0
2016-Jun-23 09:32N 37°55' E 023°05'0 0.0
2016-Jun-23 08:29N 37°55' E 023°05'1 0.2
2016-Jun-23 05:33N 37°55' E 023°06'0 0.0
2016-Jun-23 04:33N 37°55' E 023°06'0 0.0
2016-Jun-23 03:33N 37°55' E 023°06'0 0.0
2016-Jun-23 02:32N 37°55' E 023°06'0 0.0
2016-Jun-23 01:33N 37°55' E 023°06'0 0.0
2016-Jun-23 00:33N 37°55' E 023°06'8 7.8
2016-Jun-22 23:33N 37°53' E 023°16'1010.3
2016-Jun-22 22:33N 37°50' E 023°28'10 9.5
2016-Jun-22 21:33N 37°49' E 023°40'1010.0
2016-Jun-22 20:33N 37°41' E 023°46'21 9.5
2016-Jun-22 18:22N 37°42' E 024°12'1010.6
2016-Jun-22 17:24N 37°48' E 024°22'  
2016-Jun-18 15:10N 37°03' E 025°03'12 1.6
2016-Jun-18 07:33N 37°10' E 025°15'7 7.1
2016-Jun-18 06:33N 37°06' E 025°22'0 0.4
2016-Jun-18 05:33N 37°06' E 025°22'0 0.0
2016-Jun-18 04:33N 37°06' E 025°22'0 0.0
2016-Jun-18 03:33N 37°06' E 025°22'0 0.2
2016-Jun-18 02:33N 37°06' E 025°22'1 0.6
2016-Jun-18 01:33N 37°06' E 025°22'0 0.0
2016-Jun-18 00:33N 37°06' E 025°22'0 0.0
2016-Jun-17 23:33N 37°06' E 025°22'0 0.0
2016-Jun-17 22:33N 37°06' E 025°22'0 0.0
2016-Jun-17 21:33N 37°06' E 025°22'8 7.7
2016-Jun-17 20:33N 37°13' E 025°20'1010.0
2016-Jun-17 19:33N 37°23' E 025°17'5 5.0
2016-Jun-17 18:33N 37°28' E 025°20'0 0.0
2016-Jun-17 17:33N 37°28' E 025°20'0 0.0
2016-Jun-17 16:33N 37°28' E 025°20'0 0.0
2016-Jun-17 15:33N 37°28' E 025°20'  
Track history (hours):
 
Tides and Currents Weather Stations Pressure Air Temp Water Temp Dewpoint Dewpoint Depression Visibility Wind Speed Wind Dir Waves Ship Positions

Chrisanthi

Last reported at 2016-Jun-27 14:34 UTC. Time now 2016-Jun-27 16:55 UTC.
Position N 37°04' E 025°06'.

Length 56 m; draft 3.9 m.

Type: Ship (hazmat cat A). MMSI: 237009100.

Date/timePositionNaut miles runAvg speedWind from/ knotsBaromVisibWave heightAir tempDewpointWater temp
2016-Jun-27 14:34N 37°04' E 025°06'1 0.1
2016-Jun-27 07:23N 37°05' E 025°07'12 0.8
2016-Jun-26 17:33N 37°02' E 025°21'5 5.0
2016-Jun-26 16:34N 37°06' E 025°22'1 0.6
2016-Jun-26 15:33N 37°06' E 025°22'0 0.2
2016-Jun-26 14:33N 37°06' E 025°22'1 0.7
2016-Jun-26 13:33N 37°06' E 025°22'1 0.5
2016-Jun-26 12:33N 37°06' E 025°22'0 0.1
2016-Jun-26 11:33N 37°06' E 025°22'4 3.7
2016-Jun-26 10:33N 37°09' E 025°20'10 9.6
2016-Jun-26 09:33N 37°19' E 025°18'9 9.0
2016-Jun-26 08:33N 37°28' E 025°19'0 0.0
2016-Jun-26 07:33N 37°28' E 025°19'0 0.4
2016-Jun-26 06:33N 37°27' E 025°19'0 0.3
2016-Jun-26 05:33N 37°27' E 025°19'5 5.0
2016-Jun-26 04:33N 37°28' E 025°13'2110.1
2016-Jun-26 02:30N 37°33' E 024°48'2010.1
2016-Jun-26 00:31N 37°41' E 024°24'33 0.7
2016-Jun-24 02:16N 37°24' E 023°49'7 9.9
2016-Jun-24 01:33N 37°28' E 023°42'1010.0
2016-Jun-24 00:33N 37°35' E 023°33'10 9.7
2016-Jun-23 23:33N 37°39' E 023°22'10 9.5
2016-Jun-23 22:33N 37°46' E 023°14'1010.1
2016-Jun-23 21:33N 37°54' E 023°06'1 0.1
2016-Jun-23 16:16N 37°55' E 023°05'0 0.0
2016-Jun-23 11:32N 37°55' E 023°05'0 0.0
2016-Jun-23 10:32N 37°55' E 023°05'0 0.0
2016-Jun-23 09:32N 37°55' E 023°05'0 0.0
2016-Jun-23 08:29N 37°55' E 023°05'1 0.2
2016-Jun-23 05:33N 37°55' E 023°06'0 0.0
2016-Jun-23 04:33N 37°55' E 023°06'0 0.0
2016-Jun-23 03:33N 37°55' E 023°06'0 0.0
2016-Jun-23 02:32N 37°55' E 023°06'0 0.0
2016-Jun-23 01:33N 37°55' E 023°06'0 0.0
2016-Jun-23 00:33N 37°55' E 023°06'8 7.8
2016-Jun-22 23:33N 37°53' E 023°16'1010.3
2016-Jun-22 22:33N 37°50' E 023°28'10 9.5
2016-Jun-22 21:33N 37°49' E 023°40'1010.0
2016-Jun-22 20:33N 37°41' E 023°46'21 9.5
2016-Jun-22 18:22N 37°42' E 024°12'1010.6
2016-Jun-22 17:24N 37°48' E 024°22'  
2016-Jun-18 15:10N 37°03' E 025°03'12 1.6
2016-Jun-18 07:33N 37°10' E 025°15'7 7.1
2016-Jun-18 06:33N 37°06' E 025°22'0 0.4
2016-Jun-18 05:33N 37°06' E 025°22'0 0.0
2016-Jun-18 04:33N 37°06' E 025°22'0 0.0
2016-Jun-18 03:33N 37°06' E 025°22'0 0.2
2016-Jun-18 02:33N 37°06' E 025°22'1 0.6
2016-Jun-18 01:33N 37°06' E 025°22'0 0.0
2016-Jun-18 00:33N 37°06' E 025°22'0 0.0
2016-Jun-17 23:33N 37°06' E 025°22'0 0.0
2016-Jun-17 22:33N 37°06' E 025°22'0 0.0
2016-Jun-17 21:33N 37°06' E 025°22'8 7.7
2016-Jun-17 20:33N 37°13' E 025°20'1010.0
2016-Jun-17 19:33N 37°23' E 025°17'5 5.0
2016-Jun-17 18:33N 37°28' E 025°20'0 0.0
2016-Jun-17 17:33N 37°28' E 025°20'0 0.0
2016-Jun-17 16:33N 37°28' E 025°20'0 0.0
2016-Jun-17 15:33N 37°28' E 025°20'  

Dump ship's entire track history